createdAt,value
2023-04-07T00:01:35.513Z,6.17
2023-04-07T00:04:02.549Z,5.03
2023-04-07T00:06:29.938Z,5.00
2023-04-07T00:08:57.032Z,5.53
2023-04-07T00:11:24.144Z,5.67
2023-04-07T00:13:51.439Z,5.43
2023-04-07T00:16:18.760Z,5.47
2023-04-07T00:18:46.192Z,5.47
2023-04-07T00:21:13.252Z,5.13
2023-04-07T00:23:39.883Z,5.50
2023-04-07T00:26:06.962Z,4.70
2023-04-07T00:28:33.993Z,5.33
2023-04-07T00:31:01.229Z,5.53
2023-04-07T00:33:28.272Z,4.50
2023-04-07T00:35:54.990Z,5.40
2023-04-07T00:38:21.660Z,5.00
2023-04-07T00:40:48.738Z,4.83
2023-04-07T00:43:16.037Z,5.80
2023-04-07T00:45:43.063Z,5.07
2023-04-07T00:48:11.016Z,5.37
2023-04-07T00:50:38.123Z,4.97
2023-04-07T00:53:05.477Z,5.37
2023-04-07T00:55:32.615Z,5.67
2023-04-07T00:57:59.466Z,5.30
2023-04-07T01:00:27.939Z,4.73
2023-04-07T01:03:06.401Z,5.60
2023-04-07T01:05:46.962Z,4.73
2023-04-07T01:08:35.167Z,4.57
2023-04-07T01:11:13.010Z,5.20
2023-04-07T01:13:45.907Z,5.60
2023-04-07T01:16:50.590Z,4.80
2023-04-07T01:19:36.764Z,4.80
2023-04-07T01:22:11.721Z,4.63
2023-04-07T01:25:03.843Z,5.20
2023-04-07T01:27:54.247Z,5.07
2023-04-07T01:30:24.364Z,5.70
2023-04-07T01:32:53.112Z,4.77
2023-04-07T01:35:22.369Z,5.33
2023-04-07T01:37:50.538Z,4.90
2023-04-07T01:40:18.054Z,5.27
2023-04-07T01:42:45.923Z,4.90
2023-04-07T01:45:12.999Z,5.00
2023-04-07T01:47:40.335Z,5.43
2023-04-07T01:50:10.971Z,5.20
2023-04-07T01:52:39.936Z,5.60
2023-04-07T01:55:07.626Z,5.20
2023-04-07T01:57:38.706Z,6.20
2023-04-07T02:00:12.435Z,5.00
2023-04-07T02:02:45.500Z,4.97
2023-04-07T02:05:14.834Z,5.73
2023-04-07T02:07:49.619Z,5.53
2023-04-07T02:10:19.968Z,5.63
2023-04-07T02:12:48.503Z,5.67
2023-04-07T02:15:19.514Z,5.47
2023-04-07T02:17:51.823Z,5.23
2023-04-07T02:20:19.950Z,5.03
2023-04-07T02:22:47.087Z,5.20
2023-04-07T02:25:27.563Z,5.17
2023-04-07T02:27:56.269Z,5.33
2023-04-07T02:30:23.450Z,5.47
2023-04-07T02:32:51.446Z,5.40
2023-04-07T02:35:18.520Z,5.00
2023-04-07T02:37:46.483Z,5.30
2023-04-07T02:40:13.886Z,5.17
2023-04-07T02:42:41.217Z,5.50
2023-04-07T02:45:09.374Z,5.17
2023-04-07T02:47:38.219Z,5.23
2023-04-07T02:50:05.933Z,4.57
2023-04-07T02:52:35.726Z,5.23
2023-04-07T02:55:07.128Z,5.00
2023-04-07T02:57:34.226Z,5.60
2023-04-07T03:00:04.618Z,5.87
2023-04-07T03:02:47.530Z,5.00
2023-04-07T03:05:16.181Z,5.67
2023-04-07T03:07:43.463Z,5.30
2023-04-07T03:10:11.330Z,5.77
2023-04-07T03:12:37.941Z,5.77
2023-04-07T03:15:04.872Z,6.10
2023-04-07T03:17:32.086Z,5.50
2023-04-07T03:19:59.146Z,6.40
2023-04-07T03:22:27.220Z,5.93
2023-04-07T03:24:54.863Z,5.77
2023-04-07T03:27:24.573Z,5.50
2023-04-07T03:29:51.690Z,6.43
2023-04-07T03:32:18.686Z,5.53
2023-04-07T03:34:45.802Z,5.67
2023-04-07T03:37:14.243Z,6.10
2023-04-07T03:39:42.353Z,5.87
2023-04-07T03:42:24.227Z,5.37
2023-04-07T03:44:56.072Z,6.07
2023-04-07T03:47:23.423Z,5.20
2023-04-07T03:49:56.434Z,5.70
2023-04-07T03:52:23.744Z,6.13
2023-04-07T03:54:54.840Z,5.33
2023-04-07T03:57:27.207Z,5.40
2023-04-07T03:59:55.233Z,4.53
2023-04-07T04:02:22.621Z,5.60
2023-04-07T04:04:52.763Z,5.93
2023-04-07T04:07:22.357Z,5.67
2023-04-07T04:09:51.853Z,5.53
2023-04-07T04:12:19.308Z,5.87
2023-04-07T04:14:58.536Z,5.30
2023-04-07T04:17:26.244Z,5.67
2023-04-07T04:19:54.270Z,4.83
2023-04-07T04:22:26.088Z,5.50
2023-04-07T04:24:56.796Z,5.73
2023-04-07T04:27:25.500Z,6.33
2023-04-07T04:29:59.211Z,5.23
2023-04-07T04:32:35.816Z,6.03
2023-04-07T04:35:03.002Z,5.90
2023-04-07T04:37:33.182Z,5.57
2023-04-07T04:40:01.977Z,6.73
2023-04-07T04:42:31.405Z,5.90
2023-04-07T04:44:58.667Z,5.90
2023-04-07T04:47:27.251Z,6.67
2023-04-07T04:49:54.439Z,5.63
2023-04-07T04:52:21.954Z,6.23
2023-04-07T04:54:50.594Z,5.80
2023-04-07T04:57:18.857Z,6.07
2023-04-07T04:59:45.928Z,5.77
2023-04-07T05:02:13.067Z,6.00
2023-04-07T05:04:40.665Z,7.30
2023-04-07T05:07:24.268Z,6.30
2023-04-07T05:09:52.363Z,5.93
2023-04-07T05:12:21.660Z,6.10
2023-04-07T05:14:54.647Z,6.30
2023-04-07T05:17:21.767Z,6.90
2023-04-07T05:19:48.563Z,6.33
2023-04-07T05:22:24.657Z,5.93
2023-04-07T05:24:52.527Z,6.80
2023-04-07T05:27:20.432Z,6.73
2023-04-07T05:29:51.680Z,6.70
2023-04-07T05:32:25.308Z,6.97
2023-04-07T05:34:52.792Z,6.57
2023-04-07T05:37:20.400Z,6.33
2023-04-07T05:39:48.506Z,6.03
2023-04-07T05:42:15.849Z,5.70
2023-04-07T05:44:45.635Z,6.17
2023-04-07T05:47:13.993Z,5.97
2023-04-07T05:49:45.912Z,6.67
2023-04-07T05:52:13.946Z,6.37
2023-04-07T05:54:44.118Z,5.30
2023-04-07T05:57:14.244Z,5.70
2023-04-07T05:59:44.776Z,6.03
2023-04-07T06:02:11.981Z,5.73
2023-04-07T06:04:40.082Z,5.80
2023-04-07T06:07:09.206Z,6.63
2023-04-07T06:09:36.538Z,6.37
2023-04-07T06:12:05.127Z,6.60
2023-04-07T06:14:32.983Z,6.33
2023-04-07T06:17:01.161Z,5.77
2023-04-07T06:19:28.379Z,6.60
2023-04-07T06:21:55.489Z,6.30
2023-04-07T06:24:25.080Z,6.07
2023-04-07T06:26:52.899Z,6.30
2023-04-07T06:29:21.864Z,6.30
2023-04-07T06:31:49.114Z,5.93
2023-04-07T06:34:16.576Z,6.97
2023-04-07T06:36:43.764Z,6.10
2023-04-07T06:39:10.828Z,6.80
2023-04-07T06:41:38.835Z,6.40
2023-04-07T06:44:07.035Z,6.93
2023-04-07T06:46:35.405Z,6.73
2023-04-07T06:49:02.627Z,6.70
2023-04-07T06:51:29.760Z,6.80
2023-04-07T06:53:56.388Z,5.73
2023-04-07T06:56:23.789Z,6.13
2023-04-07T06:58:51.081Z,5.43
2023-04-07T07:01:18.154Z,5.77
2023-04-07T07:03:45.269Z,6.33
2023-04-07T07:06:12.025Z,6.37
2023-04-07T07:08:39.163Z,5.97
2023-04-07T07:11:05.809Z,5.33
2023-04-07T07:13:32.870Z,6.07
2023-04-07T07:15:59.919Z,5.83
2023-04-07T07:18:27.102Z,4.87
2023-04-07T07:20:54.129Z,4.40
2023-04-07T07:23:21.194Z,5.40
2023-04-07T07:25:48.268Z,5.57
2023-04-07T07:28:16.244Z,5.03
2023-04-07T07:30:43.309Z,4.43
2023-04-07T07:33:10.437Z,3.90
2023-04-07T07:35:37.921Z,4.80
2023-04-07T07:38:05.309Z,4.20
2023-04-07T07:40:32.363Z,3.90
2023-04-07T07:42:59.411Z,4.67
2023-04-07T07:45:26.508Z,4.07
2023-04-07T07:47:54.658Z,4.53
2023-04-07T07:50:22.326Z,4.80
2023-04-07T07:52:49.406Z,4.17
2023-04-07T07:55:16.478Z,4.37
2023-04-07T07:57:43.593Z,4.57
2023-04-07T08:00:10.981Z,4.73
2023-04-07T08:02:41.250Z,4.90
2023-04-07T08:05:08.705Z,4.47
2023-04-07T08:07:35.699Z,5.17
2023-04-07T08:10:02.780Z,4.90
2023-04-07T08:12:29.865Z,4.93
2023-04-07T08:14:56.947Z,4.13
2023-04-07T08:17:24.031Z,4.53
2023-04-07T08:19:51.136Z,4.53
2023-04-07T08:22:20.930Z,3.63
2023-04-07T08:24:48.043Z,4.40
2023-04-07T08:27:15.293Z,3.80
2023-04-07T08:29:42.365Z,3.93
2023-04-07T08:32:09.443Z,3.83
2023-04-07T08:34:36.546Z,3.87
2023-04-07T08:37:03.689Z,3.17
2023-04-07T08:39:30.745Z,3.10
2023-04-07T08:41:58.277Z,3.50
2023-04-07T08:44:27.251Z,2.80
2023-04-07T08:46:57.494Z,3.40
2023-04-07T08:49:27.434Z,3.70
2023-04-07T08:51:56.697Z,3.67
2023-04-07T08:54:24.502Z,3.77
2023-04-07T08:56:51.951Z,3.40
2023-04-07T08:59:21.849Z,3.50
2023-04-07T09:01:49.237Z,3.63
2023-04-07T09:04:16.530Z,4.70
2023-04-07T09:06:43.841Z,3.77
2023-04-07T09:09:10.981Z,3.30
2023-04-07T09:11:39.982Z,3.63
2023-04-07T09:14:07.531Z,3.67
2023-04-07T09:16:34.256Z,3.57
2023-04-07T09:19:01.365Z,3.70
2023-04-07T09:21:48.446Z,3.77
2023-04-07T09:24:25.228Z,3.27
2023-04-07T09:27:08.324Z,3.60
2023-04-07T09:29:34.911Z,3.20
2023-04-07T09:32:02.000Z,3.20
2023-04-07T09:34:33.379Z,3.07
2023-04-07T09:37:00.798Z,2.90
2023-04-07T09:39:27.635Z,3.07
2023-04-07T09:41:55.068Z,3.03
2023-04-07T09:44:22.738Z,3.07
2023-04-07T09:46:59.287Z,3.00
2023-04-07T09:49:26.502Z,2.77
2023-04-07T09:51:53.567Z,3.17
2023-04-07T09:54:35.204Z,2.93
2023-04-07T09:57:03.158Z,2.97
2023-04-07T09:59:31.346Z,2.77
2023-04-07T10:01:58.697Z,2.93
2023-04-07T10:04:26.279Z,2.87
2023-04-07T10:06:57.330Z,3.50
2023-04-07T10:09:26.161Z,3.13
2023-04-07T10:11:54.579Z,3.00
2023-04-07T10:14:23.335Z,2.17
2023-04-07T10:16:51.869Z,2.70
2023-04-07T10:19:19.609Z,2.27
2023-04-07T10:21:50.624Z,2.30
2023-04-07T10:24:49.699Z,2.50
2023-04-07T10:27:24.166Z,2.10
2023-04-07T10:29:52.600Z,2.40
2023-04-07T10:32:19.729Z,2.90
2023-04-07T10:34:55.697Z,2.10
2023-04-07T10:37:23.699Z,2.40
2023-04-07T10:39:52.934Z,2.33
2023-04-07T10:42:38.706Z,2.07
2023-04-07T10:45:09.540Z,2.27
2023-04-07T10:47:59.624Z,2.00
2023-04-07T10:50:28.470Z,2.20
2023-04-07T10:53:12.854Z,1.63
2023-04-07T10:55:41.343Z,2.10
2023-04-07T10:58:21.033Z,1.93
2023-04-07T11:01:06.442Z,2.20
2023-04-07T11:03:52.871Z,2.60
2023-04-07T11:06:20.014Z,1.87
2023-04-07T11:08:49.457Z,2.43
2023-04-07T11:11:20.826Z,1.90
2023-04-07T11:13:51.563Z,2.23
2023-04-07T11:16:20.156Z,3.00
2023-04-07T11:18:48.214Z,2.57
2023-04-07T11:21:19.467Z,2.87
2023-04-07T11:23:47.761Z,3.20
2023-04-07T11:26:15.553Z,3.00
2023-04-07T11:28:47.377Z,3.63
2023-04-07T11:31:28.590Z,3.43
2023-04-07T11:34:03.122Z,3.80
2023-04-07T11:36:40.647Z,3.83
2023-04-07T11:39:21.989Z,3.50
2023-04-07T11:41:50.156Z,3.80
2023-04-07T11:44:17.434Z,3.90
2023-04-07T11:46:58.499Z,3.47
2023-04-07T11:49:28.080Z,2.87
2023-04-07T11:52:05.794Z,3.33
2023-04-07T11:54:50.491Z,3.87
2023-04-07T11:57:27.363Z,3.20
2023-04-07T12:00:08.111Z,3.40
2023-04-07T12:02:35.970Z,3.67
2023-04-07T12:05:03.670Z,3.23
2023-04-07T12:07:31.394Z,3.07
2023-04-07T12:09:58.464Z,3.47
2023-04-07T12:12:27.212Z,3.53
2023-04-07T12:14:54.496Z,4.80
2023-04-07T12:17:26.783Z,7.67
2023-04-07T12:19:54.188Z,6.73
2023-04-07T12:22:21.222Z,4.27
2023-04-07T12:24:48.259Z,3.13
2023-04-07T12:27:15.573Z,3.50
2023-04-07T12:29:43.769Z,3.50
2023-04-07T12:32:10.966Z,4.43
2023-04-07T12:34:38.144Z,4.40
2023-04-07T12:37:05.168Z,3.60
2023-04-07T12:39:33.409Z,4.67
2023-04-07T12:42:00.420Z,3.80
2023-04-07T12:44:27.455Z,3.87
2023-04-07T12:46:54.513Z,3.80
2023-04-07T12:49:21.553Z,3.73
2023-04-07T12:51:48.787Z,4.63
2023-04-07T12:54:15.899Z,3.93
2023-04-07T12:56:42.958Z,4.20
2023-04-07T12:59:10.059Z,4.50
2023-04-07T13:07:44.529Z,3.53
2023-04-07T13:10:11.402Z,3.60
2023-04-07T13:12:39.837Z,3.83
2023-04-07T13:15:07.513Z,3.43
2023-04-07T13:17:36.536Z,3.57
2023-04-07T13:20:04.833Z,4.30
2023-04-07T13:22:32.248Z,4.20
2023-04-07T13:25:00.231Z,4.47
2023-04-07T13:27:28.068Z,4.10
2023-04-07T13:29:55.404Z,4.00
2023-04-07T13:32:23.507Z,4.17
2023-04-07T13:34:50.828Z,3.67
2023-04-07T13:37:19.464Z,4.40
2023-04-07T13:39:46.549Z,4.60
2023-04-07T13:42:16.822Z,4.50
2023-04-07T13:44:47.364Z,4.30
2023-04-07T13:47:19.673Z,6.17
2023-04-07T13:49:47.613Z,5.57
2023-04-07T13:52:14.875Z,5.00
2023-04-07T13:54:42.308Z,4.60
2023-04-07T13:57:09.060Z,4.40
2023-04-07T13:59:36.223Z,4.77
2023-04-07T14:02:03.326Z,4.50
2023-04-07T14:04:30.461Z,4.67
2023-04-07T14:06:57.770Z,4.20
2023-04-07T14:09:24.342Z,5.27
2023-04-07T14:11:51.371Z,4.60
2023-04-07T14:14:18.106Z,5.17
2023-04-07T14:16:45.125Z,4.37
2023-04-07T14:19:12.329Z,4.03
2023-04-07T14:21:39.382Z,4.80
2023-04-07T14:24:06.762Z,4.33
2023-04-07T14:26:33.811Z,4.73
2023-04-07T14:29:00.396Z,5.67
2023-04-07T14:31:27.483Z,4.73
2023-04-07T14:33:55.301Z,4.47
2023-04-07T14:36:22.345Z,4.80
2023-04-07T14:38:50.795Z,4.77
2023-04-07T14:41:18.206Z,5.00
2023-04-07T14:43:45.292Z,15.07
2023-04-07T14:46:12.377Z,8.40
2023-04-07T14:48:39.967Z,4.77
2023-04-07T14:51:13.591Z,6.37
2023-04-07T14:53:42.091Z,5.67
2023-04-07T14:56:09.139Z,6.07
2023-04-07T14:58:38.799Z,4.93
2023-04-07T15:01:06.438Z,6.37
2023-04-07T15:03:35.060Z,5.47
2023-04-07T15:06:02.250Z,8.73
2023-04-07T15:08:29.313Z,6.33
2023-04-07T15:10:56.495Z,5.90
2023-04-07T15:13:23.087Z,8.67
2023-04-07T15:15:50.288Z,5.63
2023-04-07T15:18:17.364Z,5.40
2023-04-07T15:20:44.533Z,5.90
2023-04-07T15:23:14.627Z,7.67
2023-04-07T15:25:41.673Z,5.47
2023-04-07T15:28:08.712Z,4.77
2023-04-07T15:30:37.193Z,5.10
2023-04-07T15:33:04.761Z,5.20
2023-04-07T15:35:31.876Z,5.40
2023-04-07T15:37:58.946Z,5.60
2023-04-07T15:40:26.097Z,7.10
2023-04-07T15:42:53.154Z,5.27
2023-04-07T15:45:19.824Z,5.70
2023-04-07T15:47:46.896Z,5.73
2023-04-07T15:50:13.555Z,4.83
2023-04-07T15:52:40.640Z,4.80
2023-04-07T15:55:07.626Z,4.33
2023-04-07T15:57:34.716Z,3.60
2023-04-07T16:00:01.334Z,3.83
2023-04-07T16:02:28.181Z,3.40
2023-04-07T16:04:55.378Z,3.13
2023-04-07T16:07:22.420Z,3.13
2023-04-07T16:09:49.505Z,2.70
2023-04-07T16:12:17.098Z,3.57
2023-04-07T16:14:44.217Z,3.47
2023-04-07T16:17:11.933Z,3.03
2023-04-07T16:19:38.963Z,3.00
2023-04-07T16:22:06.232Z,2.63
2023-04-07T16:24:33.323Z,3.20
2023-04-07T16:27:03.981Z,3.40
2023-04-07T16:29:31.351Z,3.60
2023-04-07T16:31:58.450Z,3.00
2023-04-07T16:34:25.711Z,3.30
2023-04-07T16:36:52.775Z,2.87
2023-04-07T16:39:19.858Z,3.00
2023-04-07T16:41:46.927Z,2.80
2023-04-07T16:44:13.963Z,3.43
2023-04-07T16:46:41.481Z,3.30
2023-04-07T16:49:10.375Z,2.47
2023-04-07T16:51:37.740Z,3.40
2023-04-07T16:54:04.804Z,3.20
2023-04-07T16:56:31.850Z,3.30
2023-04-07T16:58:58.912Z,3.63
2023-04-07T17:01:29.708Z,3.07
2023-04-07T17:03:56.927Z,3.20
2023-04-07T17:06:24.150Z,3.33
2023-04-07T17:08:51.268Z,3.43
2023-04-07T17:11:18.370Z,3.13
2023-04-07T17:13:46.474Z,3.20
2023-04-07T17:16:14.714Z,3.57
2023-04-07T17:18:41.821Z,3.27
2023-04-07T17:21:08.861Z,3.07
2023-04-07T17:23:35.860Z,3.03
2023-04-07T17:26:02.892Z,3.17
2023-04-07T17:28:30.174Z,3.07
2023-04-07T17:30:58.389Z,3.10
2023-04-07T17:33:25.908Z,3.30
2023-04-07T17:35:53.357Z,3.40
2023-04-07T17:38:20.539Z,3.30
2023-04-07T17:40:47.584Z,2.83
2023-04-07T17:43:14.656Z,2.93
2023-04-07T17:45:41.716Z,3.43
2023-04-07T17:48:11.856Z,2.93
2023-04-07T17:50:39.073Z,3.07
2023-04-07T17:53:06.451Z,3.37
2023-04-07T17:55:33.549Z,3.27
2023-04-07T17:58:01.911Z,3.33
2023-04-07T18:00:29.648Z,3.40
2023-04-07T18:02:56.920Z,4.13
2023-04-07T18:05:24.325Z,3.30
2023-04-07T18:07:51.501Z,3.93
2023-04-07T18:10:18.559Z,3.33
2023-04-07T18:12:45.558Z,3.47
2023-04-07T18:15:12.625Z,3.50
2023-04-07T18:17:39.687Z,5.00
2023-04-07T18:20:06.972Z,5.07
2023-04-07T18:22:34.356Z,4.23
2023-04-07T18:25:01.668Z,8.63
2023-04-07T18:27:28.740Z,7.93
2023-04-07T18:29:58.164Z,11.17
2023-04-07T18:32:25.211Z,12.93
2023-04-07T18:34:53.567Z,4.77
2023-04-07T18:37:21.039Z,7.00
2023-04-07T18:39:48.283Z,6.20
2023-04-07T18:42:15.441Z,5.97
2023-04-07T18:44:42.073Z,6.37
2023-04-07T18:47:09.139Z,5.37
2023-04-07T18:49:36.173Z,4.10
2023-04-07T18:52:04.094Z,4.17
2023-04-07T18:54:31.116Z,5.10
2023-04-07T18:56:58.417Z,3.47
2023-04-07T18:59:26.531Z,4.40
2023-04-07T19:01:53.710Z,4.40
2023-04-07T19:04:20.979Z,18.53
2023-04-07T19:06:51.771Z,16.50
2023-04-07T19:09:18.848Z,4.67
2023-04-07T19:11:46.025Z,5.03
2023-04-07T19:14:13.527Z,5.57
2023-04-07T19:16:41.108Z,3.93
2023-04-07T19:19:10.001Z,4.50
2023-04-07T19:21:37.053Z,4.00
2023-04-07T19:24:04.157Z,3.97
2023-04-07T19:26:31.481Z,3.93
2023-04-07T19:28:58.537Z,3.80
2023-04-07T19:31:26.930Z,3.70
2023-04-07T19:33:53.523Z,3.80
2023-04-07T19:36:20.754Z,3.60
2023-04-07T19:38:47.329Z,4.00
2023-04-07T19:41:14.400Z,3.57
2023-04-07T19:43:41.459Z,4.03
2023-04-07T19:46:09.108Z,3.47
2023-04-07T19:48:37.007Z,3.60
2023-04-07T19:51:05.459Z,3.20
2023-04-07T19:53:34.252Z,3.50
2023-04-07T19:56:02.675Z,3.80
2023-04-07T19:58:29.730Z,4.00
2023-04-07T20:00:56.841Z,4.70
2023-04-07T20:03:24.100Z,3.50
2023-04-07T20:05:52.814Z,3.67
2023-04-07T20:08:19.853Z,3.63
2023-04-07T20:10:46.966Z,3.03
2023-04-07T20:13:14.010Z,3.53
2023-04-07T20:15:41.055Z,3.37
2023-04-07T20:18:08.234Z,3.90
2023-04-07T20:20:36.737Z,3.63
2023-04-07T20:23:03.961Z,3.50
2023-04-07T20:25:30.976Z,2.87
2023-04-07T20:27:58.178Z,2.90
2023-04-07T20:30:24.783Z,3.10
2023-04-07T20:32:51.886Z,2.80
2023-04-07T20:35:19.538Z,3.53
2023-04-07T20:37:46.143Z,3.33
2023-04-07T20:40:13.322Z,3.20
2023-04-07T20:42:40.009Z,3.17
2023-04-07T20:45:07.721Z,3.07
2023-04-07T20:47:36.573Z,2.93
2023-04-07T20:50:03.441Z,3.10
2023-04-07T20:52:30.737Z,2.63
2023-04-07T20:54:58.243Z,3.00
2023-04-07T20:57:25.299Z,2.57
2023-04-07T20:59:52.360Z,3.00
2023-04-07T21:02:19.005Z,2.90
2023-04-07T21:04:46.185Z,3.40
2023-04-07T21:07:13.352Z,3.70
2023-04-07T21:09:41.268Z,4.00
2023-04-07T21:12:08.434Z,3.73
2023-04-07T21:14:35.997Z,3.40
2023-04-07T21:17:02.700Z,3.93
2023-04-07T21:19:29.264Z,3.37
2023-04-07T21:21:56.213Z,2.87
2023-04-07T21:24:23.258Z,3.13
2023-04-07T21:26:50.318Z,2.87
2023-04-07T21:29:16.923Z,3.13
2023-04-07T21:31:44.049Z,3.33
2023-04-07T21:34:11.152Z,3.40
2023-04-07T21:36:38.183Z,3.10
2023-04-07T21:39:05.213Z,3.30
2023-04-07T21:41:31.860Z,3.60
2023-04-07T21:43:58.966Z,4.30
2023-04-07T21:46:26.404Z,4.53
2023-04-07T21:48:53.506Z,4.47
2023-04-07T21:51:20.539Z,3.70
2023-04-07T21:53:47.596Z,3.80
2023-04-07T21:56:14.618Z,3.33
2023-04-07T21:58:42.106Z,3.67
2023-04-07T22:01:09.525Z,3.73
2023-04-07T22:03:36.808Z,3.83
2023-04-07T22:06:03.968Z,4.50
2023-04-07T22:08:31.171Z,3.90
2023-04-07T22:10:58.640Z,4.10
2023-04-07T22:13:25.860Z,5.03
2023-04-07T22:15:52.976Z,4.43
2023-04-07T22:18:22.042Z,4.23
2023-04-07T22:20:49.270Z,3.87
2023-04-07T22:23:16.314Z,4.10
2023-04-07T22:25:43.403Z,4.17
2023-04-07T22:28:10.433Z,4.10
2023-04-07T22:30:37.473Z,4.13
2023-04-07T22:33:05.204Z,4.10
2023-04-07T22:35:32.438Z,4.53
2023-04-07T22:37:59.507Z,4.07
2023-04-07T22:40:26.546Z,3.90
2023-04-07T22:42:53.162Z,4.97
2023-04-07T22:45:20.904Z,3.90
2023-04-07T22:47:47.988Z,3.73
2023-04-07T22:50:15.592Z,3.87
2023-04-07T22:52:42.640Z,5.10
2023-04-07T22:55:09.458Z,4.53
2023-04-07T22:57:36.621Z,4.00
2023-04-07T23:00:04.613Z,4.07
2023-04-07T23:02:32.473Z,4.87
2023-04-07T23:04:59.595Z,4.63
2023-04-07T23:07:27.040Z,4.37
2023-04-07T23:09:53.737Z,3.97
2023-04-07T23:12:20.837Z,4.93
2023-04-07T23:14:48.148Z,3.80
2023-04-07T23:17:15.902Z,4.63
2023-04-07T23:19:42.961Z,4.13
2023-04-07T23:22:10.008Z,3.97
2023-04-07T23:24:37.040Z,4.20
2023-04-07T23:27:04.142Z,4.23
2023-04-07T23:29:31.448Z,3.97
2023-04-07T23:31:58.406Z,4.40
2023-04-07T23:34:25.592Z,4.13
2023-04-07T23:36:52.908Z,3.13
2023-04-07T23:39:19.948Z,3.87
2023-04-07T23:41:47.005Z,4.03
2023-04-07T23:44:14.147Z,3.77
2023-04-07T23:46:41.271Z,3.80
2023-04-07T23:49:08.316Z,3.33
2023-04-07T23:51:35.647Z,4.13
2023-04-07T23:54:02.701Z,4.10
2023-04-07T23:56:29.734Z,3.97
2023-04-07T23:58:56.780Z,3.97
